Terminal Aerodrome Forecast
Issued by NWS

Home | Current Version | Previous Version | Text Only | Print | Product List | Glossary On
Versions: 1 2 3 4 5 6 7 8 9 10 11 12 13 14 15
621
FTUS42 KJAX 191121
TAFVQQ
TAF
KVQQ 191121Z 1912/2012 24004KT 4SM BR OVC005
     FM191300 24006KT P6SM SCT010 SCT250
     FM191600 25010G20KT P6SM FEW040 SCT250
     FM192300 29007KT P6SM SCT040 BKN250
     FM200600 02012G20KT P6SM SCT040 BKN250=

USA.gov is the U.S. government's official web portal to all federal, state and local government web resources and services.